sensor_id;sensor_type;location;lat;lon;timestamp;pressure;altitude;pressure_sealevel;temperature;humidity
63731;BME280;49747;51.334;6.830;2022-11-25T00:01:28;100614.06;;;11.78;73.53
63731;BME280;49747;51.334;6.830;2022-11-25T00:03:56;100603.41;;;11.78;73.76
63731;BME280;49747;51.334;6.830;2022-11-25T00:06:33;100603.78;;;11.74;73.61
63731;BME280;49747;51.334;6.830;2022-11-25T00:09:07;100599.75;;;11.68;73.78
63731;BME280;49747;51.334;6.830;2022-11-25T00:11:35;100597.09;;;11.68;74.30
63731;BME280;49747;51.334;6.830;2022-11-25T00:14:03;100592.53;;;11.70;73.93
63731;BME280;49747;51.334;6.830;2022-11-25T00:16:29;100590.84;;;11.69;74.06
63731;BME280;49747;51.334;6.830;2022-11-25T00:18:57;100584.63;;;11.69;74.59
63731;BME280;49747;51.334;6.830;2022-11-25T00:21:26;100590.94;;;11.68;74.62
63731;BME280;49747;51.334;6.830;2022-11-25T00:23:55;100598.31;;;11.64;74.50
63731;BME280;49747;51.334;6.830;2022-11-25T00:26:23;100597.47;;;11.64;74.77
63731;BME280;49747;51.334;6.830;2022-11-25T00:28:50;100578.13;;;11.62;74.79
63731;BME280;49747;51.334;6.830;2022-11-25T00:31:25;100587.44;;;11.67;74.99
63731;BME280;49747;51.334;6.830;2022-11-25T00:33:53;100593.50;;;11.69;75.01
63731;BME280;49747;51.334;6.830;2022-11-25T00:36:21;100594.22;;;11.71;74.82
63731;BME280;49747;51.334;6.830;2022-11-25T00:38:54;100589.88;;;11.70;75.00
63731;BME280;49747;51.334;6.830;2022-11-25T00:41:22;100587.06;;;11.72;75.11
63731;BME280;49747;51.334;6.830;2022-11-25T00:44:14;100582.59;;;11.72;74.95
63731;BME280;49747;51.334;6.830;2022-11-25T00:47:05;100576.78;;;11.67;75.23
63731;BME280;49747;51.334;6.830;2022-11-25T00:49:32;100592.53;;;11.70;75.09
63731;BME280;49747;51.334;6.830;2022-11-25T00:51:58;100578.47;;;11.68;75.50
63731;BME280;49747;51.334;6.830;2022-11-25T00:54:25;100567.97;;;11.67;75.19
63731;BME280;49747;51.334;6.830;2022-11-25T00:56:52;100573.16;;;11.68;75.75
63731;BME280;49747;51.334;6.830;2022-11-25T00:59:19;100577.78;;;11.66;75.68
63731;BME280;49747;51.334;6.830;2022-11-25T01:01:46;100579.31;;;11.69;75.69
63731;BME280;49747;51.334;6.830;2022-11-25T01:04:13;100576.56;;;11.70;75.88
63731;BME280;49747;51.334;6.830;2022-11-25T01:06:40;100562.16;;;11.62;76.08
63731;BME280;49747;51.334;6.830;2022-11-25T01:09:07;100569.78;;;11.66;76.26
63731;BME280;49747;51.334;6.830;2022-11-25T01:11:37;100573.16;;;11.68;75.87
63731;BME280;49747;51.334;6.830;2022-11-25T01:14:04;100574.25;;;11.66;76.33
63731;BME280;49747;51.334;6.830;2022-11-25T01:16:31;100564.69;;;11.63;76.52
63731;BME280;49747;51.334;6.830;2022-11-25T01:18:58;100576.31;;;11.62;76.59
63731;BME280;49747;51.334;6.830;2022-11-25T01:21:31;100564.84;;;11.62;76.91
63731;BME280;49747;51.334;6.830;2022-11-25T01:23:59;100559.63;;;11.60;76.65
63731;BME280;49747;51.334;6.830;2022-11-25T01:26:27;100569.53;;;11.58;77.15
63731;BME280;49747;51.334;6.830;2022-11-25T01:28:59;100571.22;;;11.59;77.19
63731;BME280;49747;51.334;6.830;2022-11-25T01:31:29;100573.75;;;11.60;77.13
63731;BME280;49747;51.334;6.830;2022-11-25T01:34:00;100566.75;;;11.59;76.76
63731;BME280;49747;51.334;6.830;2022-11-25T01:36:27;100564.69;;;11.63;76.78
63731;BME280;49747;51.334;6.830;2022-11-25T01:38:55;100568.09;;;11.65;77.12
63731;BME280;49747;51.334;6.830;2022-11-25T01:41:23;100567.13;;;11.66;76.92
63731;BME280;49747;51.334;6.830;2022-11-25T01:46:59;100559.47;;;11.73;78.04
63731;BME280;49747;51.334;6.830;2022-11-25T01:52:24;100560.47;;;11.72;77.30
63731;BME280;49747;51.334;6.830;2022-11-25T01:54:59;100563.84;;;11.74;77.17
63731;BME280;49747;51.334;6.830;2022-11-25T01:57:42;100557.69;;;11.73;77.40
63731;BME280;49747;51.334;6.830;2022-11-25T02:00:11;100558.63;;;11.72;77.28
63731;BME280;49747;51.334;6.830;2022-11-25T02:02:47;100556.25;;;11.69;78.02
63731;BME280;49747;51.334;6.830;2022-11-25T02:05:18;100552.47;;;11.72;77.66
63731;BME280;49747;51.334;6.830;2022-11-25T02:07:48;100574.59;;;11.72;77.68
63731;BME280;49747;51.334;6.830;2022-11-25T02:10:20;100556.81;;;11.73;78.05
63731;BME280;49747;51.334;6.830;2022-11-25T02:12:47;100558.63;;;11.72;78.04
63731;BME280;49747;51.334;6.830;2022-11-25T02:15:15;100542.44;;;11.75;78.11
63731;BME280;49747;51.334;6.830;2022-11-25T02:17:43;100535.78;;;11.70;78.08
63731;BME280;49747;51.334;6.830;2022-11-25T02:20:14;100534.22;;;11.78;78.19
63731;BME280;49747;51.334;6.830;2022-11-25T02:22:58;100545.22;;;11.74;78.49
63731;BME280;49747;51.334;6.830;2022-11-25T02:25:29;100530.09;;;11.74;78.29
63731;BME280;49747;51.334;6.830;2022-11-25T02:28:00;100534.06;;;11.80;78.38
63731;BME280;49747;51.334;6.830;2022-11-25T02:30:28;100533.97;;;11.81;78.08
63731;BME280;49747;51.334;6.830;2022-11-25T02:32:57;100541.72;;;11.84;78.29
63731;BME280;49747;51.334;6.830;2022-11-25T02:35:31;100539.06;;;11.84;78.22
63731;BME280;49747;51.334;6.830;2022-11-25T02:38:02;100549.84;;;11.83;78.44
63731;BME280;49747;51.334;6.830;2022-11-25T02:40:33;100534.72;;;11.83;78.31
63731;BME280;49747;51.334;6.830;2022-11-25T02:43:01;100534.59;;;11.85;78.34
63731;BME280;49747;51.334;6.830;2022-11-25T02:46:01;100531.94;;;11.85;78.63
63731;BME280;49747;51.334;6.830;2022-11-25T02:48:31;100542.31;;;11.88;78.49
63731;BME280;49747;51.334;6.830;2022-11-25T02:51:20;100547.16;;;11.94;78.55
63731;BME280;49747;51.334;6.830;2022-11-25T02:53:48;100548.38;;;11.90;78.57
63731;BME280;49747;51.334;6.830;2022-11-25T02:56:18;100552.72;;;11.91;78.77
63731;BME280;49747;51.334;6.830;2022-11-25T02:58:45;100547.16;;;11.94;78.74
63731;BME280;49747;51.334;6.830;2022-11-25T03:01:12;100544.38;;;11.96;78.49
63731;BME280;49747;51.334;6.830;2022-11-25T03:03:39;100552.34;;;11.96;78.70
63731;BME280;49747;51.334;6.830;2022-11-25T03:06:07;100553.94;;;11.98;78.77
63731;BME280;49747;51.334;6.830;2022-11-25T03:08:35;100551.28;;;11.98;79.24
63731;BME280;49747;51.334;6.830;2022-11-25T03:11:05;100555.75;;;11.98;79.40
63731;BME280;49747;51.334;6.830;2022-11-25T03:13:32;100552.13;;;11.99;79.79
63731;BME280;49747;51.334;6.830;2022-11-25T03:15:59;100553.69;;;12.01;79.57
63731;BME280;49747;51.334;6.830;2022-11-25T03:18:26;100550.88;;;12.03;79.93
63731;BME280;49747;51.334;6.830;2022-11-25T03:20:53;100541.59;;;11.97;80.50
63731;BME280;49747;51.334;6.830;2022-11-25T03:23:22;100550.06;;;12.02;80.27
63731;BME280;49747;51.334;6.830;2022-11-25T03:25:52;100554.91;;;11.97;80.58
63731;BME280;49747;51.334;6.830;2022-11-25T03:28:19;100565.19;;;12.02;80.41
63731;BME280;49747;51.334;6.830;2022-11-25T03:30:46;100559.00;;;12.01;80.32
63731;BME280;49747;51.334;6.830;2022-11-25T03:33:12;100552.13;;;11.99;80.38
63731;BME280;49747;51.334;6.830;2022-11-25T03:35:40;100566.88;;;12.03;80.23
63731;BME280;49747;51.334;6.830;2022-11-25T03:38:06;100561.53;;;12.03;80.11
63731;BME280;49747;51.334;6.830;2022-11-25T03:40:35;100562.28;;;12.05;80.18
63731;BME280;49747;51.334;6.830;2022-11-25T03:43:01;100569.16;;;12.07;80.52
63731;BME280;49747;51.334;6.830;2022-11-25T03:45:28;100564.66;;;12.08;80.10
63731;BME280;49747;51.334;6.830;2022-11-25T03:47:57;100566.25;;;12.11;79.86
63731;BME280;49747;51.334;6.830;2022-11-25T03:50:25;100580.16;;;12.14;80.01
63731;BME280;49747;51.334;6.830;2022-11-25T03:52:52;100583.19;;;12.10;79.44
63731;BME280;49747;51.334;6.830;2022-11-25T03:55:19;100577.03;;;12.09;79.28
63731;BME280;49747;51.334;6.830;2022-11-25T03:57:47;100581.25;;;12.12;79.76
63731;BME280;49747;51.334;6.830;2022-11-25T04:00:14;100582.94;;;12.13;79.47
63731;BME280;49747;51.334;6.830;2022-11-25T04:02:49;100601.22;;;12.17;79.53
63731;BME280;49747;51.334;6.830;2022-11-25T04:05:17;100606.28;;;12.20;79.23
63731;BME280;49747;51.334;6.830;2022-11-25T04:07:44;100601.81;;;12.21;79.74
63731;BME280;49747;51.334;6.830;2022-11-25T04:10:11;100614.03;;;12.23;80.08
63731;BME280;49747;51.334;6.830;2022-11-25T04:12:37;100616.59;;;12.25;80.83
63731;BME280;49747;51.334;6.830;2022-11-25T04:15:19;100611.00;;;12.28;80.76
63731;BME280;49747;51.334;6.830;2022-11-25T04:17:50;100612.72;;;12.29;81.73
63731;BME280;49747;51.334;6.830;2022-11-25T04:20:17;100622.47;;;12.28;81.29
63731;BME280;49747;51.334;6.830;2022-11-25T04:22:50;100622.13;;;12.33;81.47
63731;BME280;49747;51.334;6.830;2022-11-25T04:25:18;100615.94;;;12.32;81.63
63731;BME280;49747;51.334;6.830;2022-11-25T04:27:45;100610.88;;;12.29;81.56
63731;BME280;49747;51.334;6.830;2022-11-25T04:30:14;100613.41;;;12.31;81.82
63731;BME280;49747;51.334;6.830;2022-11-25T04:32:42;100614.78;;;12.25;82.28
63731;BME280;49747;51.334;6.830;2022-11-25T04:35:11;100621.91;;;12.25;82.65
63731;BME280;49747;51.334;6.830;2022-11-25T04:37:41;100618.28;;;12.26;82.27
63731;BME280;49747;51.334;6.830;2022-11-25T04:40:08;100623.47;;;12.27;82.72
63731;BME280;49747;51.334;6.830;2022-11-25T04:42:35;100619.59;;;12.20;83.04
63731;BME280;49747;51.334;6.830;2022-11-25T04:45:15;100629.63;;;12.28;83.00
63731;BME280;49747;51.334;6.830;2022-11-25T04:47:52;100624.44;;;12.26;83.18
63731;BME280;49747;51.334;6.830;2022-11-25T04:50:20;100633.13;;;12.28;83.39
63731;BME280;49747;51.334;6.830;2022-11-25T04:53:14;100642.09;;;12.27;83.63
63731;BME280;49747;51.334;6.830;2022-11-25T04:55:41;100634.13;;;12.27;83.54
63731;BME280;49747;51.334;6.830;2022-11-25T04:58:13;100638.47;;;12.28;83.53
63731;BME280;49747;51.334;6.830;2022-11-25T05:01:01;100638.84;;;12.24;83.47
63731;BME280;49747;51.334;6.830;2022-11-25T05:03:28;100650.47;;;12.23;83.75
63731;BME280;49747;51.334;6.830;2022-11-25T05:05:54;100651.56;;;12.20;83.70
63731;BME280;49747;51.334;6.830;2022-11-25T05:08:22;100655.09;;;12.21;83.50
63731;BME280;49747;51.334;6.830;2022-11-25T05:10:49;100660.28;;;12.22;83.59
63731;BME280;49747;51.334;6.830;2022-11-25T05:13:16;100663.19;;;12.19;84.05
63731;BME280;49747;51.334;6.830;2022-11-25T05:15:43;100661.50;;;12.18;83.97
63731;BME280;49747;51.334;6.830;2022-11-25T05:18:11;100656.16;;;12.18;83.87
63731;BME280;49747;51.334;6.830;2022-11-25T05:20:42;100662.47;;;12.17;84.05
63731;BME280;49747;51.334;6.830;2022-11-25T05:23:12;100668.75;;;12.16;84.34
63731;BME280;49747;51.334;6.830;2022-11-25T05:25:38;100668.75;;;12.16;84.76
63731;BME280;49747;51.334;6.830;2022-11-25T05:28:28;100669.84;;;12.14;84.98
63731;BME280;49747;51.334;6.830;2022-11-25T05:30:56;100677.72;;;12.15;85.19
63731;BME280;49747;51.334;6.830;2022-11-25T05:33:23;100682.34;;;12.13;85.36
63731;BME280;49747;51.334;6.830;2022-11-25T05:35:58;100685.00;;;12.13;85.75
63731;BME280;49747;51.334;6.830;2022-11-25T05:38:31;100678.69;;;12.14;85.51
63731;BME280;49747;51.334;6.830;2022-11-25T05:41:03;100657.38;;;12.14;85.69
63731;BME280;49747;51.334;6.830;2022-11-25T05:43:31;100661.97;;;12.12;85.60
63731;BME280;49747;51.334;6.830;2022-11-25T05:45:59;100674.59;;;12.10;85.91
63731;BME280;49747;51.334;6.830;2022-11-25T05:48:26;100672.03;;;12.08;86.46
63731;BME280;49747;51.334;6.830;2022-11-25T05:50:52;100671.44;;;12.05;86.68
63731;BME280;49747;51.334;6.830;2022-11-25T05:53:21;100672.38;;;12.04;86.54
63731;BME280;49747;51.334;6.830;2022-11-25T05:56:09;100664.53;;;12.02;86.79
63731;BME280;49747;51.334;6.830;2022-11-25T05:59:00;100673.22;;;12.04;86.84
63731;BME280;49747;51.334;6.830;2022-11-25T06:01:39;100676.63;;;12.06;86.71
63731;BME280;49747;51.334;6.830;2022-11-25T06:04:06;100681.13;;;12.06;86.59
63731;BME280;49747;51.334;6.830;2022-11-25T06:06:33;100675.44;;;12.11;86.78
63731;BME280;49747;51.334;6.830;2022-11-25T06:09:00;100687.16;;;12.08;86.62
63731;BME280;49747;51.334;6.830;2022-11-25T06:11:28;100694.44;;;12.06;86.74
63731;BME280;49747;51.334;6.830;2022-11-25T06:13:56;100698.66;;;12.08;86.83
63731;BME280;49747;51.334;6.830;2022-11-25T06:16:23;100704.09;;;12.07;87.06
63731;BME280;49747;51.334;6.830;2022-11-25T06:19:01;100706.78;;;12.07;86.61
63731;BME280;49747;51.334;6.830;2022-11-25T06:21:32;100714.03;;;12.05;86.51
63731;BME280;49747;51.334;6.830;2022-11-25T06:23:59;100703.63;;;12.02;86.62
63731;BME280;49747;51.334;6.830;2022-11-25T06:26:27;100711.63;;;12.02;87.07
63731;BME280;49747;51.334;6.830;2022-11-25T06:28:54;100717.03;;;12.00;87.23
63731;BME280;49747;51.334;6.830;2022-11-25T06:31:24;100729.66;;;11.98;87.44
63731;BME280;49747;51.334;6.830;2022-11-25T06:34:09;100720.81;;;11.98;87.27
63731;BME280;49747;51.334;6.830;2022-11-25T06:36:38;100729.50;;;12.00;87.37
63731;BME280;49747;51.334;6.830;2022-11-25T06:39:04;100730.63;;;11.97;87.83
63731;BME280;49747;51.334;6.830;2022-11-25T06:41:31;100731.47;;;11.98;87.62
63731;BME280;49747;51.334;6.830;2022-11-25T06:43:58;100733.50;;;11.94;87.78
63731;BME280;49747;51.334;6.830;2022-11-25T06:46:24;100729.75;;;11.97;87.66
63731;BME280;49747;51.334;6.830;2022-11-25T06:48:52;100729.66;;;11.98;87.64
63731;BME280;49747;51.334;6.830;2022-11-25T06:51:19;100737.72;;;11.97;87.68
63731;BME280;49747;51.334;6.830;2022-11-25T06:53:45;100738.00;;;11.94;88.12
63731;BME280;49747;51.334;6.830;2022-11-25T06:56:14;100742.34;;;11.95;87.84
63731;BME280;49747;51.334;6.830;2022-11-25T06:58:42;100749.50;;;11.94;88.31
63731;BME280;49747;51.334;6.830;2022-11-25T07:03:41;100758.19;;;11.96;87.69
63731;BME280;49747;51.334;6.830;2022-11-25T07:06:08;100767.16;;;11.95;87.67
63731;BME280;49747;51.334;6.830;2022-11-25T07:08:34;100776.72;;;11.98;87.52
63731;BME280;49747;51.334;6.830;2022-11-25T07:11:27;100774.41;;;11.93;87.63
63731;BME280;49747;51.334;6.830;2022-11-25T07:13:53;100773.31;;;11.96;87.85
63731;BME280;49747;51.334;6.830;2022-11-25T07:16:20;100779.25;;;11.99;87.82
63731;BME280;49747;51.334;6.830;2022-11-25T07:18:48;100783.72;;;11.99;87.60
63731;BME280;49747;51.334;6.830;2022-11-25T07:21:19;100782.88;;;11.98;87.63
63731;BME280;49747;51.334;6.830;2022-11-25T07:23:46;100782.06;;;11.98;87.47
63731;BME280;49747;51.334;6.830;2022-11-25T07:26:25;100787.38;;;11.98;87.70
63731;BME280;49747;51.334;6.830;2022-11-25T07:28:53;100789.91;;;11.99;87.37
63731;BME280;49747;51.334;6.830;2022-11-25T07:31:26;100789.06;;;11.99;87.14
63731;BME280;49747;51.334;6.830;2022-11-25T07:34:08;100793.41;;;12.00;86.57
63731;BME280;49747;51.334;6.830;2022-11-25T07:36:36;100794.38;;;11.99;86.51
63731;BME280;49747;51.334;6.830;2022-11-25T07:39:06;100798.88;;;11.98;86.25
63731;BME280;49747;51.334;6.830;2022-11-25T07:41:33;100818.22;;;12.00;86.16
63731;BME280;49747;51.334;6.830;2022-11-25T07:44:02;100820.88;;;12.00;86.21
63731;BME280;49747;51.334;6.830;2022-11-25T07:46:43;100821.97;;;11.98;86.66
63731;BME280;49747;51.334;6.830;2022-11-25T07:49:21;100824.66;;;11.98;86.42
63731;BME280;49747;51.334;6.830;2022-11-25T07:54:16;100842.53;;;11.96;86.48
63731;BME280;49747;51.334;6.830;2022-11-25T07:56:43;100840.22;;;11.91;86.67
63731;BME280;49747;51.334;6.830;2022-11-25T07:59:16;100842.75;;;11.93;86.73
63731;BME280;49747;51.334;6.830;2022-11-25T08:01:43;100846.03;;;11.96;86.96
63731;BME280;49747;51.334;6.830;2022-11-25T08:04:12;100849.81;;;11.94;86.96
63731;BME280;49747;51.334;6.830;2022-11-25T08:06:48;100844.34;;;11.95;86.48
63731;BME280;49747;51.334;6.830;2022-11-25T08:09:19;100843.50;;;11.95;87.14
63731;BME280;49747;51.334;6.830;2022-11-25T08:11:47;100846.78;;;11.98;87.44
63731;BME280;49747;51.334;6.830;2022-11-25T08:14:14;100850.78;;;12.04;87.93
63731;BME280;49747;51.334;6.830;2022-11-25T08:16:41;100850.56;;;12.07;87.66
63731;BME280;49747;51.334;6.830;2022-11-25T08:19:11;100868.63;;;12.15;87.55
63731;BME280;49747;51.334;6.830;2022-11-25T08:21:39;100870.94;;;12.19;87.05
63731;BME280;49747;51.334;6.830;2022-11-25T08:24:05;100872.63;;;12.20;86.85
63731;BME280;49747;51.334;6.830;2022-11-25T08:26:34;100874.94;;;12.25;86.31
63731;BME280;49747;51.334;6.830;2022-11-25T08:29:04;100886.19;;;12.28;86.24
63731;BME280;49747;51.334;6.830;2022-11-25T08:31:34;100886.09;;;12.30;85.66
63731;BME280;49747;51.334;6.830;2022-11-25T08:34:01;100880.00;;;12.28;85.88
63731;BME280;49747;51.334;6.830;2022-11-25T08:36:29;100886.81;;;12.32;85.62
63731;BME280;49747;51.334;6.830;2022-11-25T08:38:57;100892.75;;;12.36;85.19
63731;BME280;49747;51.334;6.830;2022-11-25T08:41:31;100897.84;;;12.39;85.38
63731;BME280;49747;51.334;6.830;2022-11-25T08:44:01;100888.41;;;12.46;85.51
63731;BME280;49747;51.334;6.830;2022-11-25T08:46:30;100894.97;;;12.53;85.74
63731;BME280;49747;51.334;6.830;2022-11-25T08:48:58;100893.41;;;12.62;85.36
63731;BME280;49747;51.334;6.830;2022-11-25T08:51:27;100894.00;;;12.76;86.09
63731;BME280;49747;51.334;6.830;2022-11-25T08:53:55;100899.47;;;12.86;84.95
63731;BME280;49747;51.334;6.830;2022-11-25T08:56:23;100895.97;;;12.97;83.88
63731;BME280;49747;51.334;6.830;2022-11-25T08:58:53;100899.09;;;13.13;83.67
63731;BME280;49747;51.334;6.830;2022-11-25T09:01:21;100900.28;;;13.43;82.83
63731;BME280;49747;51.334;6.830;2022-11-25T09:03:50;100896.97;;;13.94;80.45
63731;BME280;49747;51.334;6.830;2022-11-25T09:06:18;100893.25;;;14.48;78.85
63731;BME280;49747;51.334;6.830;2022-11-25T09:08:44;100907.66;;;15.08;74.96
63731;BME280;49747;51.334;6.830;2022-11-25T09:11:11;100906.41;;;15.72;73.28
63731;BME280;49747;51.334;6.830;2022-11-25T09:13:38;100916.28;;;16.10;70.74
63731;BME280;49747;51.334;6.830;2022-11-25T09:16:05;100913.16;;;16.34;68.51
63731;BME280;49747;51.334;6.830;2022-11-25T09:18:32;100915.63;;;16.65;68.32
63731;BME280;49747;51.334;6.830;2022-11-25T09:21:07;100915.06;;;16.81;66.98
63731;BME280;49747;51.334;6.830;2022-11-25T09:23:35;100917.56;;;16.92;66.74
63731;BME280;49747;51.334;6.830;2022-11-25T09:26:02;100919.47;;;17.09;65.74
63731;BME280;49747;51.334;6.830;2022-11-25T09:28:28;100927.81;;;17.34;65.31
63731;BME280;49747;51.334;6.830;2022-11-25T09:30:55;100930.78;;;17.31;64.75
63731;BME280;49747;51.334;6.830;2022-11-25T09:33:22;100926.97;;;17.33;64.65
63731;BME280;49747;51.334;6.830;2022-11-25T09:35:49;100933.53;;;17.21;64.83
63731;BME280;49747;51.334;6.830;2022-11-25T09:38:15;100945.06;;;17.04;65.00
63731;BME280;49747;51.334;6.830;2022-11-25T09:46:42;100964.63;;;15.70;72.60
63731;BME280;49747;51.334;6.830;2022-11-25T09:52:15;100965.84;;;14.85;76.39
63731;BME280;49747;51.334;6.830;2022-11-25T09:54:54;100971.28;;;14.53;76.26
63731;BME280;49747;51.334;6.830;2022-11-25T09:57:34;100975.03;;;13.86;77.85
63731;BME280;49747;51.334;6.830;2022-11-25T10:00:12;100984.56;;;14.32;77.81
63731;BME280;49747;51.334;6.830;2022-11-25T10:02:46;100978.66;;;14.61;76.23
63731;BME280;49747;51.334;6.830;2022-11-25T10:05:25;100980.28;;;15.65;70.38
63731;BME280;49747;51.334;6.830;2022-11-25T10:08:08;100982.25;;;15.32;72.28
63731;BME280;49747;51.334;6.830;2022-11-25T10:10:47;100988.13;;;14.95;73.64
63731;BME280;49747;51.334;6.830;2022-11-25T10:13:28;100993.91;;;14.49;76.13
63731;BME280;49747;51.334;6.830;2022-11-25T10:16:00;100985.50;;;14.42;76.17
63731;BME280;49747;51.334;6.830;2022-11-25T10:18:41;100994.94;;;14.25;76.82
63731;BME280;49747;51.334;6.830;2022-11-25T10:21:10;100997.22;;;13.98;78.14
63731;BME280;49747;51.334;6.830;2022-11-25T10:23:38;100993.66;;;13.65;80.13
63731;BME280;49747;51.334;6.830;2022-11-25T10:26:14;101007.50;;;13.48;80.35
63731;BME280;49747;51.334;6.830;2022-11-25T10:28:54;100998.06;;;13.33;81.08
63731;BME280;49747;51.334;6.830;2022-11-25T10:31:34;101007.25;;;13.62;80.52
63731;BME280;49747;51.334;6.830;2022-11-25T10:34:01;101009.03;;;13.84;79.39
63731;BME280;49747;51.334;6.830;2022-11-25T10:36:38;101010.72;;;14.28;78.29
63731;BME280;49747;51.334;6.830;2022-11-25T10:39:12;101014.34;;;14.27;78.56
63731;BME280;49747;51.334;6.830;2022-11-25T10:41:48;101013.44;;;13.74;79.12
63731;BME280;49747;51.334;6.830;2022-11-25T10:44:25;101022.59;;;13.92;79.91
63731;BME280;49747;51.334;6.830;2022-11-25T10:47:14;101024.19;;;13.95;80.14
63731;BME280;49747;51.334;6.830;2022-11-25T10:50:02;101023.72;;;13.78;80.14
63731;BME280;49747;51.334;6.830;2022-11-25T10:52:41;101021.31;;;13.64;80.59
63731;BME280;49747;51.334;6.830;2022-11-25T10:55:21;101017.31;;;13.59;79.79
63731;BME280;49747;51.334;6.830;2022-11-25T10:57:51;101017.78;;;13.64;80.40
63731;BME280;49747;51.334;6.830;2022-11-25T11:00:36;101025.47;;;13.46;80.69
63731;BME280;49747;51.334;6.830;2022-11-25T11:03:24;101029.47;;;13.40;81.88
63731;BME280;49747;51.334;6.830;2022-11-25T11:05:52;101029.91;;;13.12;82.69
63731;BME280;49747;51.334;6.830;2022-11-25T11:08:25;101031.75;;;13.22;83.29
63731;BME280;49747;51.334;6.830;2022-11-25T11:11:19;101037.66;;;13.03;84.52
63731;BME280;49747;51.334;6.830;2022-11-25T11:13:47;101030.69;;;13.25;84.10
63731;BME280;49747;51.334;6.830;2022-11-25T11:16:33;101033.66;;;13.20;82.70
63731;BME280;49747;51.334;6.830;2022-11-25T11:19:02;101040.63;;;13.34;82.77
63731;BME280;49747;51.334;6.830;2022-11-25T11:21:34;101043.06;;;13.37;82.13
63731;BME280;49747;51.334;6.830;2022-11-25T11:24:03;101042.94;;;13.39;82.99
63731;BME280;49747;51.334;6.830;2022-11-25T11:27:00;101042.22;;;13.25;82.12
63731;BME280;49747;51.334;6.830;2022-11-25T11:29:27;101051.16;;;13.24;81.63
63731;BME280;49747;51.334;6.830;2022-11-25T11:31:59;101042.81;;;13.29;81.30
63731;BME280;49747;51.334;6.830;2022-11-25T11:37:43;101045.81;;;13.24;80.29
63731;BME280;49747;51.334;6.830;2022-11-25T11:40:26;101052.84;;;13.14;79.85
63731;BME280;49747;51.334;6.830;2022-11-25T11:43:11;101060.53;;;13.30;79.91
63731;BME280;49747;51.334;6.830;2022-11-25T11:50:48;101065.25;;;13.26;80.48
63731;BME280;49747;51.334;6.830;2022-11-25T11:53:34;101062.22;;;13.31;79.99
63731;BME280;49747;51.334;6.830;2022-11-25T11:56:17;101066.47;;;13.34;79.90
63731;BME280;49747;51.334;6.830;2022-11-25T11:59:40;101068.47;;;13.19;80.58
63731;BME280;49747;51.334;6.830;2022-11-25T12:02:20;101074.34;;;13.35;81.19
63731;BME280;49747;51.334;6.830;2022-11-25T12:07:50;101078.31;;;13.18;81.08
63731;BME280;49747;51.334;6.830;2022-11-25T12:10:33;101082.00;;;13.40;81.19
63731;BME280;49747;51.334;6.830;2022-11-25T12:15:40;101094.59;;;13.26;81.79
63731;BME280;49747;51.334;6.830;2022-11-25T12:18:19;101102.13;;;13.33;80.55
63731;BME280;49747;51.334;6.830;2022-11-25T12:21:00;101098.25;;;13.37;80.83
63731;BME280;49747;51.334;6.830;2022-11-25T12:23:43;101099.81;;;13.39;80.57
63731;BME280;49747;51.334;6.830;2022-11-25T12:26:16;101103.09;;;13.43;79.81
63731;BME280;49747;51.334;6.830;2022-11-25T12:28:51;101106.88;;;13.51;79.52
63731;BME280;49747;51.334;6.830;2022-11-25T12:31:26;101106.88;;;13.51;79.52
63731;BME280;49747;51.334;6.830;2022-11-25T12:36:36;101106.75;;;13.53;78.59
63731;BME280;49747;51.334;6.830;2022-11-25T12:39:29;101111.34;;;13.40;78.54
63731;BME280;49747;51.334;6.830;2022-11-25T12:42:00;101125.53;;;13.51;78.15
63731;BME280;49747;51.334;6.830;2022-11-25T12:44:35;101123.34;;;13.34;77.83
63731;BME280;49747;51.334;6.830;2022-11-25T12:47:09;101115.13;;;13.37;77.76
63731;BME280;49747;51.334;6.830;2022-11-25T12:49:44;101129.41;;;13.36;77.50
63731;BME280;49747;51.334;6.830;2022-11-25T12:55:19;101133.13;;;13.22;78.22
63731;BME280;49747;51.334;6.830;2022-11-25T13:14:23;101163.13;;;13.26;77.49
63731;BME280;49747;51.334;6.830;2022-11-25T13:16:52;101159.53;;;13.49;77.62
63731;BME280;49747;51.334;6.830;2022-11-25T13:19:20;101163.25;;;13.36;78.11
63731;BME280;49747;51.334;6.830;2022-11-25T13:22:03;101168.16;;;13.53;77.15
63731;BME280;49747;51.334;6.830;2022-11-25T13:24:32;101176.97;;;13.42;77.49
63731;BME280;49747;51.334;6.830;2022-11-25T13:27:00;101181.44;;;13.30;77.67
63731;BME280;49747;51.334;6.830;2022-11-25T13:31:58;101185.13;;;13.41;77.47
63731;BME280;49747;51.334;6.830;2022-11-25T13:34:33;101183.41;;;13.40;77.37
63731;BME280;49747;51.334;6.830;2022-11-25T13:37:01;101186.78;;;13.30;77.14
63731;BME280;49747;51.334;6.830;2022-11-25T13:44:33;101197.56;;;13.29;77.46
63731;BME280;49747;51.334;6.830;2022-11-25T13:47:30;101202.44;;;13.11;78.12
63731;BME280;49747;51.334;6.830;2022-11-25T13:50:02;101198.13;;;13.21;78.52
63731;BME280;49747;51.334;6.830;2022-11-25T13:52:34;101209.31;;;13.26;78.38
63731;BME280;49747;51.334;6.830;2022-11-25T13:55:08;101209.88;;;13.19;79.00
63731;BME280;49747;51.334;6.830;2022-11-25T13:57:45;101219.03;;;13.27;78.40
63731;BME280;49747;51.334;6.830;2022-11-25T14:02:46;101220.41;;;13.09;78.54
63731;BME280;49747;51.334;6.830;2022-11-25T14:08:34;101233.03;;;13.18;78.28
63731;BME280;49747;51.334;6.830;2022-11-25T14:16:37;101244.78;;;13.16;78.23
63731;BME280;49747;51.334;6.830;2022-11-25T14:24:37;101249.38;;;13.14;78.39
63731;BME280;49747;51.334;6.830;2022-11-25T14:27:15;101250.09;;;13.16;77.95
63731;BME280;49747;51.334;6.830;2022-11-25T14:29:51;101253.47;;;13.06;78.28
63731;BME280;49747;51.334;6.830;2022-11-25T14:32:28;101254.38;;;12.94;77.20
63731;BME280;49747;51.334;6.830;2022-11-25T14:35:04;101264.69;;;12.99;77.45